sensor_id;sensor_type;location;lat;lon;timestamp;temperature;humidity
45906;DHT22;31619;49.008;12.106;2023-04-08T00:00:14;6.60;97.10
45906;DHT22;31619;49.008;12.106;2023-04-08T00:02:40;6.50;97.60
45906;DHT22;31619;49.008;12.106;2023-04-08T00:05:06;6.40;97.80
45906;DHT22;31619;49.008;12.106;2023-04-08T00:07:32;6.40;96.90
45906;DHT22;31619;49.008;12.106;2023-04-08T00:09:58;6.40;96.50
45906;DHT22;31619;49.008;12.106;2023-04-08T00:12:23;6.40;96.70
45906;DHT22;31619;49.008;12.106;2023-04-08T00:14:49;6.40;96.00
45906;DHT22;31619;49.008;12.106;2023-04-08T00:17:15;6.40;96.10
45906;DHT22;31619;49.008;12.106;2023-04-08T00:19:41;6.30;95.80
45906;DHT22;31619;49.008;12.106;2023-04-08T00:22:06;6.30;95.80
45906;DHT22;31619;49.008;12.106;2023-04-08T00:24:32;6.30;95.80
45906;DHT22;31619;49.008;12.106;2023-04-08T00:26:58;6.30;95.70
45906;DHT22;31619;49.008;12.106;2023-04-08T00:29:24;6.30;95.50
45906;DHT22;31619;49.008;12.106;2023-04-08T00:31:49;6.20;95.50
45906;DHT22;31619;49.008;12.106;2023-04-08T00:34:15;6.30;95.40
45906;DHT22;31619;49.008;12.106;2023-04-08T00:36:41;6.20;95.40
45906;DHT22;31619;49.008;12.106;2023-04-08T00:39:07;6.20;95.30
45906;DHT22;31619;49.008;12.106;2023-04-08T00:41:33;6.20;95.30
45906;DHT22;31619;49.008;12.106;2023-04-08T00:44:00;6.30;95.00
45906;DHT22;31619;49.008;12.106;2023-04-08T00:46:26;6.30;94.90
45906;DHT22;31619;49.008;12.106;2023-04-08T00:48:52;6.20;94.90
45906;DHT22;31619;49.008;12.106;2023-04-08T00:51:18;6.10;95.00
45906;DHT22;31619;49.008;12.106;2023-04-08T00:53:44;6.00;94.90
45906;DHT22;31619;49.008;12.106;2023-04-08T00:56:10;6.00;95.00
45906;DHT22;31619;49.008;12.106;2023-04-08T00:58:37;6.00;95.20
45906;DHT22;31619;49.008;12.106;2023-04-08T01:01:08;5.90;94.90
45906;DHT22;31619;49.008;12.106;2023-04-08T01:06:12;5.80;95.10
45906;DHT22;31619;49.008;12.106;2023-04-08T01:08:41;5.70;95.20
45906;DHT22;31619;49.008;12.106;2023-04-08T01:11:09;5.60;95.30
45906;DHT22;31619;49.008;12.106;2023-04-08T01:13:39;5.60;95.30
45906;DHT22;31619;49.008;12.106;2023-04-08T01:16:07;5.60;95.50
45906;DHT22;31619;49.008;12.106;2023-04-08T01:18:34;5.60;95.40
45906;DHT22;31619;49.008;12.106;2023-04-08T01:21:01;5.50;95.40
45906;DHT22;31619;49.008;12.106;2023-04-08T01:23:31;5.40;95.60
45906;DHT22;31619;49.008;12.106;2023-04-08T01:26:01;5.40;95.90
45906;DHT22;31619;49.008;12.106;2023-04-08T01:28:28;5.40;96.20
45906;DHT22;31619;49.008;12.106;2023-04-08T01:30:57;5.40;96.50
45906;DHT22;31619;49.008;12.106;2023-04-08T01:33:23;5.40;96.50
45906;DHT22;31619;49.008;12.106;2023-04-08T01:35:51;5.40;96.50
45906;DHT22;31619;49.008;12.106;2023-04-08T01:38:18;5.40;96.30
45906;DHT22;31619;49.008;12.106;2023-04-08T01:40:45;5.40;96.30
45906;DHT22;31619;49.008;12.106;2023-04-08T01:43:13;5.40;96.00
45906;DHT22;31619;49.008;12.106;2023-04-08T01:45:42;5.40;96.10
45906;DHT22;31619;49.008;12.106;2023-04-08T01:48:09;5.40;95.90
45906;DHT22;31619;49.008;12.106;2023-04-08T01:50:35;5.30;95.90
45906;DHT22;31619;49.008;12.106;2023-04-08T01:53:01;5.30;96.10
45906;DHT22;31619;49.008;12.106;2023-04-08T01:55:28;5.20;96.20
45906;DHT22;31619;49.008;12.106;2023-04-08T01:57:55;5.30;96.20
45906;DHT22;31619;49.008;12.106;2023-04-08T02:00:24;5.30;96.00
45906;DHT22;31619;49.008;12.106;2023-04-08T02:02:51;5.30;96.10
45906;DHT22;31619;49.008;12.106;2023-04-08T02:05:17;5.30;96.00
45906;DHT22;31619;49.008;12.106;2023-04-08T02:07:43;5.30;96.00
45906;DHT22;31619;49.008;12.106;2023-04-08T02:10:11;5.30;95.90
45906;DHT22;31619;49.008;12.106;2023-04-08T02:12:36;5.30;95.90
45906;DHT22;31619;49.008;12.106;2023-04-08T02:15:02;5.30;95.80
45906;DHT22;31619;49.008;12.106;2023-04-08T02:17:44;5.40;95.70
45906;DHT22;31619;49.008;12.106;2023-04-08T02:25:15;5.50;95.40
45906;DHT22;31619;49.008;12.106;2023-04-08T02:27:43;5.50;95.30
45906;DHT22;31619;49.008;12.106;2023-04-08T02:30:10;5.60;95.20
45906;DHT22;31619;49.008;12.106;2023-04-08T02:32:36;5.60;95.20
45906;DHT22;31619;49.008;12.106;2023-04-08T02:35:04;5.70;95.40
45906;DHT22;31619;49.008;12.106;2023-04-08T02:37:31;5.70;95.00
45906;DHT22;31619;49.008;12.106;2023-04-08T02:39:58;5.80;95.00
45906;DHT22;31619;49.008;12.106;2023-04-08T02:42:24;5.90;95.40
45906;DHT22;31619;49.008;12.106;2023-04-08T02:44:50;5.90;94.70
45906;DHT22;31619;49.008;12.106;2023-04-08T02:47:16;6.00;94.70
45906;DHT22;31619;49.008;12.106;2023-04-08T02:49:41;6.00;94.80
45906;DHT22;31619;49.008;12.106;2023-04-08T02:52:07;6.00;94.80
45906;DHT22;31619;49.008;12.106;2023-04-08T02:54:32;6.10;94.50
45906;DHT22;31619;49.008;12.106;2023-04-08T02:56:58;6.10;94.70
45906;DHT22;31619;49.008;12.106;2023-04-08T02:59:24;6.10;94.80
45906;DHT22;31619;49.008;12.106;2023-04-08T03:01:49;6.10;94.80
45906;DHT22;31619;49.008;12.106;2023-04-08T03:04:15;6.10;95.40
45906;DHT22;31619;49.008;12.106;2023-04-08T03:06:41;6.10;95.30
45906;DHT22;31619;49.008;12.106;2023-04-08T03:09:06;6.10;94.80
45906;DHT22;31619;49.008;12.106;2023-04-08T03:11:32;6.10;94.80
45906;DHT22;31619;49.008;12.106;2023-04-08T03:13:58;6.20;94.60
45906;DHT22;31619;49.008;12.106;2023-04-08T03:16:24;6.20;94.90
45906;DHT22;31619;49.008;12.106;2023-04-08T03:18:50;6.20;94.60
45906;DHT22;31619;49.008;12.106;2023-04-08T03:21:16;6.20;94.60
45906;DHT22;31619;49.008;12.106;2023-04-08T03:23:42;6.20;94.60
45906;DHT22;31619;49.008;12.106;2023-04-08T03:26:07;6.20;94.30
45906;DHT22;31619;49.008;12.106;2023-04-08T03:28:33;6.20;94.70
45906;DHT22;31619;49.008;12.106;2023-04-08T03:30:58;6.20;94.70
45906;DHT22;31619;49.008;12.106;2023-04-08T03:33:25;6.20;94.90
45906;DHT22;31619;49.008;12.106;2023-04-08T03:35:52;6.20;94.60
45906;DHT22;31619;49.008;12.106;2023-04-08T03:38:18;6.20;94.90
45906;DHT22;31619;49.008;12.106;2023-04-08T03:40:43;6.20;94.60
45906;DHT22;31619;49.008;12.106;2023-04-08T03:43:09;6.20;94.90
45906;DHT22;31619;49.008;12.106;2023-04-08T03:45:36;6.10;94.90
45906;DHT22;31619;49.008;12.106;2023-04-08T03:48:02;6.10;94.90
45906;DHT22;31619;49.008;12.106;2023-04-08T03:50:27;6.10;94.60
45906;DHT22;31619;49.008;12.106;2023-04-08T03:52:53;6.10;95.00
45906;DHT22;31619;49.008;12.106;2023-04-08T03:55:18;6.10;95.70
45906;DHT22;31619;49.008;12.106;2023-04-08T03:57:44;6.00;95.40
45906;DHT22;31619;49.008;12.106;2023-04-08T04:00:10;6.00;95.20
45906;DHT22;31619;49.008;12.106;2023-04-08T04:02:36;6.10;95.10
45906;DHT22;31619;49.008;12.106;2023-04-08T04:05:02;6.10;94.90
45906;DHT22;31619;49.008;12.106;2023-04-08T04:07:27;6.00;95.20
45906;DHT22;31619;49.008;12.106;2023-04-08T04:09:53;6.00;95.80
45906;DHT22;31619;49.008;12.106;2023-04-08T04:12:21;6.00;96.10
45906;DHT22;31619;49.008;12.106;2023-04-08T04:14:47;5.90;95.90
45906;DHT22;31619;49.008;12.106;2023-04-08T04:17:12;6.00;96.90
45906;DHT22;31619;49.008;12.106;2023-04-08T04:19:38;6.00;97.10
45906;DHT22;31619;49.008;12.106;2023-04-08T04:22:03;6.00;97.40
45906;DHT22;31619;49.008;12.106;2023-04-08T04:24:29;6.10;97.90
45906;DHT22;31619;49.008;12.106;2023-04-08T04:26:54;6.10;97.40
45906;DHT22;31619;49.008;12.106;2023-04-08T04:29:20;6.00;97.60
45906;DHT22;31619;49.008;12.106;2023-04-08T04:31:46;5.90;97.40
45906;DHT22;31619;49.008;12.106;2023-04-08T04:34:12;5.90;97.40
45906;DHT22;31619;49.008;12.106;2023-04-08T04:36:37;5.90;97.70
45906;DHT22;31619;49.008;12.106;2023-04-08T04:39:03;5.90;97.60
45906;DHT22;31619;49.008;12.106;2023-04-08T04:41:28;5.90;97.60
45906;DHT22;31619;49.008;12.106;2023-04-08T04:43:54;5.90;98.20
45906;DHT22;31619;49.008;12.106;2023-04-08T04:46:20;5.80;98.10
45906;DHT22;31619;49.008;12.106;2023-04-08T04:48:45;5.80;98.00
45906;DHT22;31619;49.008;12.106;2023-04-08T04:51:11;5.80;98.10
45906;DHT22;31619;49.008;12.106;2023-04-08T04:53:37;5.80;98.50
45906;DHT22;31619;49.008;12.106;2023-04-08T04:56:02;5.80;98.60
45906;DHT22;31619;49.008;12.106;2023-04-08T04:58:28;5.70;98.40
45906;DHT22;31619;49.008;12.106;2023-04-08T05:00:55;5.70;98.50
45906;DHT22;31619;49.008;12.106;2023-04-08T05:03:20;5.80;98.40
45906;DHT22;31619;49.008;12.106;2023-04-08T05:05:50;5.80;98.60
45906;DHT22;31619;49.008;12.106;2023-04-08T05:08:16;5.80;98.50
45906;DHT22;31619;49.008;12.106;2023-04-08T05:10:42;5.80;98.70
45906;DHT22;31619;49.008;12.106;2023-04-08T05:13:07;5.90;98.70
45906;DHT22;31619;49.008;12.106;2023-04-08T05:15:33;5.80;98.00
45906;DHT22;31619;49.008;12.106;2023-04-08T05:17:59;5.90;98.00
45906;DHT22;31619;49.008;12.106;2023-04-08T05:20:24;5.90;98.00
45906;DHT22;31619;49.008;12.106;2023-04-08T05:22:50;6.00;97.00
45906;DHT22;31619;49.008;12.106;2023-04-08T05:25:16;6.00;97.40
45906;DHT22;31619;49.008;12.106;2023-04-08T05:27:41;5.90;97.40
45906;DHT22;31619;49.008;12.106;2023-04-08T05:30:07;6.00;98.00
45906;DHT22;31619;49.008;12.106;2023-04-08T05:32:34;6.00;97.90
45906;DHT22;31619;49.008;12.106;2023-04-08T05:35:02;5.90;98.00
45906;DHT22;31619;49.008;12.106;2023-04-08T05:37:28;6.00;98.60
45906;DHT22;31619;49.008;12.106;2023-04-08T05:39:53;6.00;99.00
45906;DHT22;31619;49.008;12.106;2023-04-08T05:42:19;6.00;98.80
45906;DHT22;31619;49.008;12.106;2023-04-08T05:44:45;6.20;99.10
45906;DHT22;31619;49.008;12.106;2023-04-08T05:47:10;6.30;99.40
45906;DHT22;31619;49.008;12.106;2023-04-08T05:49:36;6.20;99.90
45906;DHT22;31619;49.008;12.106;2023-04-08T05:52:02;6.10;99.90
45906;DHT22;31619;49.008;12.106;2023-04-08T05:54:28;6.00;99.90
45906;DHT22;31619;49.008;12.106;2023-04-08T05:56:54;5.90;99.90
45906;DHT22;31619;49.008;12.106;2023-04-08T05:59:19;5.80;99.90
45906;DHT22;31619;49.008;12.106;2023-04-08T06:01:45;5.60;99.90
45906;DHT22;31619;49.008;12.106;2023-04-08T06:04:11;5.40;99.90
45906;DHT22;31619;49.008;12.106;2023-04-08T06:06:37;5.30;99.90
45906;DHT22;31619;49.008;12.106;2023-04-08T06:09:05;5.20;99.90
45906;DHT22;31619;49.008;12.106;2023-04-08T06:11:31;5.10;99.90
45906;DHT22;31619;49.008;12.106;2023-04-08T06:13:57;5.10;99.90
45906;DHT22;31619;49.008;12.106;2023-04-08T06:16:22;5.00;99.90
45906;DHT22;31619;49.008;12.106;2023-04-08T06:18:48;5.10;99.90
45906;DHT22;31619;49.008;12.106;2023-04-08T06:21:13;5.10;99.90
45906;DHT22;31619;49.008;12.106;2023-04-08T06:23:39;5.00;99.90
45906;DHT22;31619;49.008;12.106;2023-04-08T06:26:05;4.80;99.90
45906;DHT22;31619;49.008;12.106;2023-04-08T06:28:31;4.70;99.90
45906;DHT22;31619;49.008;12.106;2023-04-08T06:30:58;4.50;99.90
45906;DHT22;31619;49.008;12.106;2023-04-08T06:33:23;4.40;99.90
45906;DHT22;31619;49.008;12.106;2023-04-08T06:35:49;4.30;99.90
45906;DHT22;31619;49.008;12.106;2023-04-08T06:38:15;4.30;99.90
45906;DHT22;31619;49.008;12.106;2023-04-08T06:40:40;4.30;99.90
45906;DHT22;31619;49.008;12.106;2023-04-08T06:43:06;4.30;99.90
45906;DHT22;31619;49.008;12.106;2023-04-08T06:45:33;4.30;99.90
45906;DHT22;31619;49.008;12.106;2023-04-08T06:47:58;4.30;99.90
45906;DHT22;31619;49.008;12.106;2023-04-08T06:50:24;4.30;99.90
45906;DHT22;31619;49.008;12.106;2023-04-08T06:52:50;4.30;99.90
45906;DHT22;31619;49.008;12.106;2023-04-08T06:55:16;4.30;99.90
45906;DHT22;31619;49.008;12.106;2023-04-08T06:57:41;4.30;99.90
45906;DHT22;31619;49.008;12.106;2023-04-08T07:00:07;4.40;99.90
45906;DHT22;31619;49.008;12.106;2023-04-08T07:02:33;4.30;99.90
45906;DHT22;31619;49.008;12.106;2023-04-08T07:04:59;4.20;99.90
45906;DHT22;31619;49.008;12.106;2023-04-08T07:07:24;4.10;99.90
45906;DHT22;31619;49.008;12.106;2023-04-08T07:09:50;4.00;99.90
45906;DHT22;31619;49.008;12.106;2023-04-08T07:12:16;4.10;99.90
45906;DHT22;31619;49.008;12.106;2023-04-08T07:14:42;4.20;99.90
45906;DHT22;31619;49.008;12.106;2023-04-08T07:17:07;4.10;99.90
45906;DHT22;31619;49.008;12.106;2023-04-08T07:19:33;4.20;99.90
45906;DHT22;31619;49.008;12.106;2023-04-08T07:21:59;4.20;99.90
45906;DHT22;31619;49.008;12.106;2023-04-08T07:24:25;4.20;99.90
45906;DHT22;31619;49.008;12.106;2023-04-08T07:26:50;4.30;99.90
45906;DHT22;31619;49.008;12.106;2023-04-08T07:29:16;4.30;99.90
45906;DHT22;31619;49.008;12.106;2023-04-08T07:31:42;4.20;99.90
45906;DHT22;31619;49.008;12.106;2023-04-08T07:34:10;4.20;99.90
45906;DHT22;31619;49.008;12.106;2023-04-08T07:36:36;4.30;99.90
45906;DHT22;31619;49.008;12.106;2023-04-08T07:39:02;4.40;99.90
45906;DHT22;31619;49.008;12.106;2023-04-08T07:41:28;4.40;99.90
45906;DHT22;31619;49.008;12.106;2023-04-08T07:43:53;4.40;99.90
45906;DHT22;31619;49.008;12.106;2023-04-08T07:46:20;4.50;99.90
45906;DHT22;31619;49.008;12.106;2023-04-08T07:48:45;4.40;99.90
45906;DHT22;31619;49.008;12.106;2023-04-08T07:51:11;4.50;99.90
45906;DHT22;31619;49.008;12.106;2023-04-08T07:53:38;4.60;99.90
45906;DHT22;31619;49.008;12.106;2023-04-08T07:56:10;4.70;99.90
45906;DHT22;31619;49.008;12.106;2023-04-08T07:58:36;4.70;99.90
45906;DHT22;31619;49.008;12.106;2023-04-08T08:01:01;4.80;99.90
45906;DHT22;31619;49.008;12.106;2023-04-08T08:03:27;4.80;99.90
45906;DHT22;31619;49.008;12.106;2023-04-08T08:05:52;4.80;99.90
45906;DHT22;31619;49.008;12.106;2023-04-08T08:08:18;4.80;99.90
45906;DHT22;31619;49.008;12.106;2023-04-08T08:10:44;4.80;99.90
45906;DHT22;31619;49.008;12.106;2023-04-08T08:13:09;4.80;99.90
45906;DHT22;31619;49.008;12.106;2023-04-08T08:15:36;4.90;99.90
45906;DHT22;31619;49.008;12.106;2023-04-08T08:18:02;4.90;99.90
45906;DHT22;31619;49.008;12.106;2023-04-08T08:20:28;5.00;99.90
45906;DHT22;31619;49.008;12.106;2023-04-08T08:22:53;5.10;99.90
45906;DHT22;31619;49.008;12.106;2023-04-08T08:25:19;5.30;99.90
45906;DHT22;31619;49.008;12.106;2023-04-08T08:27:45;5.20;99.90
45906;DHT22;31619;49.008;12.106;2023-04-08T08:30:10;5.30;99.90
45906;DHT22;31619;49.008;12.106;2023-04-08T08:32:36;5.30;99.90
45906;DHT22;31619;49.008;12.106;2023-04-08T08:35:02;5.20;99.90
45906;DHT22;31619;49.008;12.106;2023-04-08T08:37:28;5.30;99.90
45906;DHT22;31619;49.008;12.106;2023-04-08T08:40:02;5.40;99.90
45906;DHT22;31619;49.008;12.106;2023-04-08T08:42:29;5.30;99.90
45906;DHT22;31619;49.008;12.106;2023-04-08T08:44:54;5.30;99.90
45906;DHT22;31619;49.008;12.106;2023-04-08T08:47:20;5.50;99.90
45906;DHT22;31619;49.008;12.106;2023-04-08T08:49:46;5.60;99.90
45906;DHT22;31619;49.008;12.106;2023-04-08T08:52:16;5.80;99.90
45906;DHT22;31619;49.008;12.106;2023-04-08T08:54:43;6.00;99.90
45906;DHT22;31619;49.008;12.106;2023-04-08T08:57:21;6.40;99.90
45906;DHT22;31619;49.008;12.106;2023-04-08T08:59:47;6.30;99.90
45906;DHT22;31619;49.008;12.106;2023-04-08T09:02:24;6.20;99.90
45906;DHT22;31619;49.008;12.106;2023-04-08T09:05:02;6.40;99.90
45906;DHT22;31619;49.008;12.106;2023-04-08T09:07:29;6.50;99.90
45906;DHT22;31619;49.008;12.106;2023-04-08T09:09:56;6.40;99.90
45906;DHT22;31619;49.008;12.106;2023-04-08T09:12:23;6.50;99.90
45906;DHT22;31619;49.008;12.106;2023-04-08T09:14:49;6.40;99.90
45906;DHT22;31619;49.008;12.106;2023-04-08T09:17:15;6.60;99.90
45906;DHT22;31619;49.008;12.106;2023-04-08T09:20:09;6.70;99.90
45906;DHT22;31619;49.008;12.106;2023-04-08T09:22:59;6.70;99.90
45906;DHT22;31619;49.008;12.106;2023-04-08T09:25:30;6.40;99.90
45906;DHT22;31619;49.008;12.106;2023-04-08T09:27:59;6.50;99.90
45906;DHT22;31619;49.008;12.106;2023-04-08T09:30:27;6.50;99.90
45906;DHT22;31619;49.008;12.106;2023-04-08T09:32:54;6.50;99.90
45906;DHT22;31619;49.008;12.106;2023-04-08T09:35:21;6.50;99.90
45906;DHT22;31619;49.008;12.106;2023-04-08T09:37:48;6.40;99.90
45906;DHT22;31619;49.008;12.106;2023-04-08T09:40:14;6.40;99.90
45906;DHT22;31619;49.008;12.106;2023-04-08T09:42:46;6.50;99.90
45906;DHT22;31619;49.008;12.106;2023-04-08T09:45:15;6.60;99.90
45906;DHT22;31619;49.008;12.106;2023-04-08T09:50:42;6.60;99.90
45906;DHT22;31619;49.008;12.106;2023-04-08T09:53:21;6.80;99.90
45906;DHT22;31619;49.008;12.106;2023-04-08T09:55:52;6.70;99.90
45906;DHT22;31619;49.008;12.106;2023-04-08T09:58:27;6.60;99.90
45906;DHT22;31619;49.008;12.106;2023-04-08T10:00:54;6.80;99.90
45906;DHT22;31619;49.008;12.106;2023-04-08T10:03:34;6.80;99.90
45906;DHT22;31619;49.008;12.106;2023-04-08T10:06:02;7.10;99.90
45906;DHT22;31619;49.008;12.106;2023-04-08T10:08:29;7.50;99.90
45906;DHT22;31619;49.008;12.106;2023-04-08T10:10:55;7.40;99.90
45906;DHT22;31619;49.008;12.106;2023-04-08T10:13:22;7.40;99.90
45906;DHT22;31619;49.008;12.106;2023-04-08T10:15:48;7.50;99.90
45906;DHT22;31619;49.008;12.106;2023-04-08T10:20:43;7.30;99.90
45906;DHT22;31619;49.008;12.106;2023-04-08T10:23:16;7.00;99.90
45906;DHT22;31619;49.008;12.106;2023-04-08T10:25:46;7.30;99.90
45906;DHT22;31619;49.008;12.106;2023-04-08T10:30:49;7.40;99.90
45906;DHT22;31619;49.008;12.106;2023-04-08T10:33:22;7.60;99.90
45906;DHT22;31619;49.008;12.106;2023-04-08T10:35:52;7.40;99.90
45906;DHT22;31619;49.008;12.106;2023-04-08T10:38:18;7.20;99.90
45906;DHT22;31619;49.008;12.106;2023-04-08T10:40:45;7.40;99.90
45906;DHT22;31619;49.008;12.106;2023-04-08T10:43:13;7.50;99.90
45906;DHT22;31619;49.008;12.106;2023-04-08T10:45:39;7.60;99.90
45906;DHT22;31619;49.008;12.106;2023-04-08T10:50:40;7.60;99.90
45906;DHT22;31619;49.008;12.106;2023-04-08T10:53:06;7.40;99.90
45906;DHT22;31619;49.008;12.106;2023-04-08T10:55:33;7.60;99.90
45906;DHT22;31619;49.008;12.106;2023-04-08T10:58:06;7.70;99.90
45906;DHT22;31619;49.008;12.106;2023-04-08T11:00:34;8.10;99.90
45906;DHT22;31619;49.008;12.106;2023-04-08T11:03:01;8.00;99.90
45906;DHT22;31619;49.008;12.106;2023-04-08T11:05:27;8.30;99.90
45906;DHT22;31619;49.008;12.106;2023-04-08T11:07:52;8.40;99.90
45906;DHT22;31619;49.008;12.106;2023-04-08T11:10:19;8.40;99.90
45906;DHT22;31619;49.008;12.106;2023-04-08T11:12:44;8.20;99.90
45906;DHT22;31619;49.008;12.106;2023-04-08T11:15:12;8.00;99.90
45906;DHT22;31619;49.008;12.106;2023-04-08T11:17:38;7.90;99.90
45906;DHT22;31619;49.008;12.106;2023-04-08T11:20:04;8.10;99.90
45906;DHT22;31619;49.008;12.106;2023-04-08T11:22:31;7.90;99.90
45906;DHT22;31619;49.008;12.106;2023-04-08T11:24:59;7.90;99.90
45906;DHT22;31619;49.008;12.106;2023-04-08T11:27:25;7.50;99.90
45906;DHT22;31619;49.008;12.106;2023-04-08T11:29:55;7.60;99.90
45906;DHT22;31619;49.008;12.106;2023-04-08T11:32:21;7.50;99.90
45906;DHT22;31619;49.008;12.106;2023-04-08T11:34:48;7.60;99.90
45906;DHT22;31619;49.008;12.106;2023-04-08T11:37:13;7.60;99.90
45906;DHT22;31619;49.008;12.106;2023-04-08T11:39:43;7.70;99.90
45906;DHT22;31619;49.008;12.106;2023-04-08T11:42:09;7.80;99.90
45906;DHT22;31619;49.008;12.106;2023-04-08T11:44:50;7.70;99.90
45906;DHT22;31619;49.008;12.106;2023-04-08T11:47:15;7.80;99.90
45906;DHT22;31619;49.008;12.106;2023-04-08T11:49:45;8.00;99.90
45906;DHT22;31619;49.008;12.106;2023-04-08T11:52:11;7.70;99.90
45906;DHT22;31619;49.008;12.106;2023-04-08T11:54:40;7.60;99.90
45906;DHT22;31619;49.008;12.106;2023-04-08T11:57:06;7.90;99.90
45906;DHT22;31619;49.008;12.106;2023-04-08T11:59:34;7.80;99.90
45906;DHT22;31619;49.008;12.106;2023-04-08T12:02:01;8.00;99.90
45906;DHT22;31619;49.008;12.106;2023-04-08T12:04:27;8.10;99.90
45906;DHT22;31619;49.008;12.106;2023-04-08T12:06:52;8.00;99.90
45906;DHT22;31619;49.008;12.106;2023-04-08T12:09:18;8.00;99.90
45906;DHT22;31619;49.008;12.106;2023-04-08T12:11:43;8.20;99.90
45906;DHT22;31619;49.008;12.106;2023-04-08T12:14:09;8.20;99.90
45906;DHT22;31619;49.008;12.106;2023-04-08T12:16:35;8.20;99.90
45906;DHT22;31619;49.008;12.106;2023-04-08T12:19:00;8.40;99.90
45906;DHT22;31619;49.008;12.106;2023-04-08T12:21:26;8.40;99.90
45906;DHT22;31619;49.008;12.106;2023-04-08T12:23:52;8.10;99.90
45906;DHT22;31619;49.008;12.106;2023-04-08T12:26:18;7.80;99.90
45906;DHT22;31619;49.008;12.106;2023-04-08T12:28:44;7.80;99.90
45906;DHT22;31619;49.008;12.106;2023-04-08T12:31:10;7.70;99.90
45906;DHT22;31619;49.008;12.106;2023-04-08T12:33:36;7.70;99.90
45906;DHT22;31619;49.008;12.106;2023-04-08T12:36:02;7.70;99.90
45906;DHT22;31619;49.008;12.106;2023-04-08T12:38:28;7.70;99.90
45906;DHT22;31619;49.008;12.106;2023-04-08T12:40:54;7.80;99.90
45906;DHT22;31619;49.008;12.106;2023-04-08T12:43:19;7.80;99.90
45906;DHT22;31619;49.008;12.106;2023-04-08T12:45:46;7.70;99.90
45906;DHT22;31619;49.008;12.106;2023-04-08T12:48:13;7.60;99.90
45906;DHT22;31619;49.008;12.106;2023-04-08T12:50:38;7.80;99.90
45906;DHT22;31619;49.008;12.106;2023-04-08T12:53:04;7.90;99.90
45906;DHT22;31619;49.008;12.106;2023-04-08T12:55:29;8.00;99.90
45906;DHT22;31619;49.008;12.106;2023-04-08T12:57:55;8.00;99.90
45906;DHT22;31619;49.008;12.106;2023-04-08T13:00:21;8.00;99.90
45906;DHT22;31619;49.008;12.106;2023-04-08T13:02:46;8.00;99.90
45906;DHT22;31619;49.008;12.106;2023-04-08T13:05:12;8.10;99.90
45906;DHT22;31619;49.008;12.106;2023-04-08T13:07:38;8.30;99.90
45906;DHT22;31619;49.008;12.106;2023-04-08T13:10:04;8.40;99.90
45906;DHT22;31619;49.008;12.106;2023-04-08T13:12:31;8.30;99.90
45906;DHT22;31619;49.008;12.106;2023-04-08T13:14:57;8.30;99.90
45906;DHT22;31619;49.008;12.106;2023-04-08T13:17:23;8.40;99.90
45906;DHT22;31619;49.008;12.106;2023-04-08T13:19:48;8.50;99.90
45906;DHT22;31619;49.008;12.106;2023-04-08T13:22:15;8.50;99.90
45906;DHT22;31619;49.008;12.106;2023-04-08T13:24:40;8.60;99.90
45906;DHT22;31619;49.008;12.106;2023-04-08T13:27:06;8.70;99.90
45906;DHT22;31619;49.008;12.106;2023-04-08T13:29:32;8.90;99.90
45906;DHT22;31619;49.008;12.106;2023-04-08T13:31:57;8.80;99.90
45906;DHT22;31619;49.008;12.106;2023-04-08T13:34:23;8.50;99.90
45906;DHT22;31619;49.008;12.106;2023-04-08T13:36:49;8.50;99.90
45906;DHT22;31619;49.008;12.106;2023-04-08T13:39:14;8.60;99.90
45906;DHT22;31619;49.008;12.106;2023-04-08T13:41:40;8.50;99.90
45906;DHT22;31619;49.008;12.106;2023-04-08T13:44:05;8.80;99.90
45906;DHT22;31619;49.008;12.106;2023-04-08T13:46:31;9.70;99.90
45906;DHT22;31619;49.008;12.106;2023-04-08T13:48:57;10.40;99.90
45906;DHT22;31619;49.008;12.106;2023-04-08T13:51:22;11.10;99.90
45906;DHT22;31619;49.008;12.106;2023-04-08T13:53:48;12.30;99.90
45906;DHT22;31619;49.008;12.106;2023-04-08T13:56:14;12.90;99.90
45906;DHT22;31619;49.008;12.106;2023-04-08T13:58:39;12.30;99.90
45906;DHT22;31619;49.008;12.106;2023-04-08T14:01:05;12.00;99.90
45906;DHT22;31619;49.008;12.106;2023-04-08T14:03:31;11.90;99.90
45906;DHT22;31619;49.008;12.106;2023-04-08T14:05:57;12.00;99.90
45906;DHT22;31619;49.008;12.106;2023-04-08T14:08:23;11.70;99.90
45906;DHT22;31619;49.008;12.106;2023-04-08T14:10:52;11.40;99.90
45906;DHT22;31619;49.008;12.106;2023-04-08T14:13:18;11.20;99.90
45906;DHT22;31619;49.008;12.106;2023-04-08T14:15:44;11.40;99.90
45906;DHT22;31619;49.008;12.106;2023-04-08T14:18:11;11.30;99.90
45906;DHT22;31619;49.008;12.106;2023-04-08T14:20:37;11.40;99.90
45906;DHT22;31619;49.008;12.106;2023-04-08T14:23:03;12.00;99.90
45906;DHT22;31619;49.008;12.106;2023-04-08T14:25:29;12.70;99.90
45906;DHT22;31619;49.008;12.106;2023-04-08T14:27:55;14.50;99.90
45906;DHT22;31619;49.008;12.106;2023-04-08T14:30:21;14.70;99.90
45906;DHT22;31619;49.008;12.106;2023-04-08T14:32:47;15.60;99.10
45906;DHT22;31619;49.008;12.106;2023-04-08T14:35:13;16.20;97.40
45906;DHT22;31619;49.008;12.106;2023-04-08T14:37:38;15.60;97.20
45906;DHT22;31619;49.008;12.106;2023-04-08T14:40:05;15.80;95.30
45906;DHT22;31619;49.008;12.106;2023-04-08T14:42:31;15.40;94.80
45906;DHT22;31619;49.008;12.106;2023-04-08T14:44:57;15.40;95.40
45906;DHT22;31619;49.008;12.106;2023-04-08T14:47:23;15.00;94.30
45906;DHT22;31619;49.008;12.106;2023-04-08T14:49:48;14.30;94.50
45906;DHT22;31619;49.008;12.106;2023-04-08T14:52:14;13.90;95.60
45906;DHT22;31619;49.008;12.106;2023-04-08T14:54:39;13.80;95.20
45906;DHT22;31619;49.008;12.106;2023-04-08T14:57:06;13.70;95.90
45906;DHT22;31619;49.008;12.106;2023-04-08T14:59:31;13.70;96.30
45906;DHT22;31619;49.008;12.106;2023-04-08T15:01:57;13.60;96.20
45906;DHT22;31619;49.008;12.106;2023-04-08T15:04:23;13.30;96.20
45906;DHT22;31619;49.008;12.106;2023-04-08T15:06:49;12.80;96.60
45906;DHT22;31619;49.008;12.106;2023-04-08T15:09:14;12.60;97.40
45906;DHT22;31619;49.008;12.106;2023-04-08T15:11:40;12.10;98.40
45906;DHT22;31619;49.008;12.106;2023-04-08T15:14:06;11.20;99.50
45906;DHT22;31619;49.008;12.106;2023-04-08T15:16:32;11.00;99.90
45906;DHT22;31619;49.008;12.106;2023-04-08T15:18:57;10.80;99.90
45906;DHT22;31619;49.008;12.106;2023-04-08T15:21:25;10.40;99.90
45906;DHT22;31619;49.008;12.106;2023-04-08T15:23:51;10.30;99.90
45906;DHT22;31619;49.008;12.106;2023-04-08T15:26:17;10.20;99.90
45906;DHT22;31619;49.008;12.106;2023-04-08T15:28:43;10.10;99.90
45906;DHT22;31619;49.008;12.106;2023-04-08T15:31:08;10.30;99.90
45906;DHT22;31619;49.008;12.106;2023-04-08T15:33:34;10.50;99.90
45906;DHT22;31619;49.008;12.106;2023-04-08T15:36:03;10.70;99.90
45906;DHT22;31619;49.008;12.106;2023-04-08T15:38:29;10.70;99.90
45906;DHT22;31619;49.008;12.106;2023-04-08T15:40:55;10.70;99.90
45906;DHT22;31619;49.008;12.106;2023-04-08T15:43:21;10.70;99.90